Weather at Samui Airport

Public forecast

Using degrees Celsius for public forecast. Weather courtesy of forecast.io.

Current aviation weather report (METAR) for Samui Airport

2024/04/25 01:00 (retrieved 1 hour ago)

VTSM 250100Z VRB01KT 9999 FEW020 32/25 Q1009 NOSIG

Closest aviation forecast (TAF) to Samui Airport

Forecast is more than 12 hours old.

Closest forecast is Car Nicobar Air Force Base, 429.7 nm (795.8 km) W.

2024/04/24 12:00 (retrieved 14 hours ago)

TAF VOCX 240930Z 2412/2424 05005KT 6000 SCT018 SCT200